createdAt,value
2019-05-18T00:01:27.336Z,3.20
2019-05-18T00:06:59.049Z,2.33
2019-05-18T00:10:07.924Z,2.90
2019-05-18T00:13:16.672Z,2.90
2019-05-18T00:15:46.099Z,2.37
2019-05-18T00:18:15.760Z,2.67
2019-05-18T00:21:24.743Z,2.50
2019-05-18T00:26:55.976Z,2.43
2019-05-18T00:30:04.615Z,2.10
2019-05-18T00:33:13.507Z,2.60
2019-05-18T00:38:57.408Z,2.17
2019-05-18T00:42:06.033Z,1.90
2019-05-18T00:44:36.704Z,2.00
2019-05-18T00:47:40.334Z,1.87
2019-05-18T00:49:58.244Z,2.13
2019-05-18T00:55:42.516Z,2.10
2019-05-18T00:58:12.239Z,2.13
2019-05-18T01:01:21.312Z,2.00
2019-05-18T01:03:51.127Z,2.00
2019-05-18T01:06:20.511Z,2.00
2019-05-18T01:08:49.974Z,1.50
2019-05-18T01:14:28.531Z,1.70
2019-05-18T01:20:46.514Z,1.50
2019-05-18T01:23:16.638Z,1.57
2019-05-18T01:25:46.282Z,1.47
2019-05-18T01:31:11.744Z,1.60
2019-05-18T01:33:41.111Z,1.57
2019-05-18T01:36:10.757Z,1.77
2019-05-18T01:38:40.389Z,1.60
2019-05-18T01:41:09.781Z,1.73
2019-05-18T01:43:39.126Z,1.60
2019-05-18T01:46:48.281Z,1.40
2019-05-18T01:49:18.140Z,1.60
2019-05-18T01:51:47.646Z,1.50
2019-05-18T01:54:56.556Z,1.43
2019-05-18T02:00:16.217Z,1.43
2019-05-18T02:03:05.559Z,1.17
2019-05-18T02:05:35.139Z,1.10
2019-05-18T02:08:04.677Z,1.50
2019-05-18T02:10:34.301Z,1.30
2019-05-18T02:15:59.307Z,1.07
2019-05-18T02:18:29.466Z,1.47
2019-05-18T02:21:00.578Z,1.20
2019-05-18T02:23:30.079Z,1.03
2019-05-18T02:25:59.570Z,1.30
2019-05-18T02:28:29.193Z,1.27
2019-05-18T02:30:58.721Z,0.90
2019-05-18T02:33:28.229Z,1.10
2019-05-18T02:35:57.618Z,1.30
2019-05-18T02:39:06.426Z,1.13
2019-05-18T02:44:31.038Z,1.20
2019-05-18T02:50:48.534Z,1.10
2019-05-18T02:56:00.416Z,1.10
2019-05-18T03:01:38.817Z,0.67
2019-05-18T03:07:23.849Z,0.97
2019-05-18T03:09:53.253Z,0.90
2019-05-18T03:15:19.205Z,0.80
2019-05-18T03:20:57.953Z,0.73
2019-05-18T03:23:27.331Z,0.80
2019-05-18T03:26:15.872Z,0.60
2019-05-18T03:31:59.871Z,0.50
2019-05-18T03:37:38.377Z,0.60
2019-05-18T03:43:22.082Z,0.70
2019-05-18T03:45:51.621Z,0.70
2019-05-18T03:48:21.032Z,0.87
2019-05-18T03:50:50.528Z,0.90
2019-05-18T03:59:05.605Z,0.87
2019-05-18T04:01:34.990Z,0.80
2019-05-18T04:04:04.371Z,0.70
2019-05-18T04:06:33.792Z,0.80
2019-05-18T04:12:17.357Z,0.60
2019-05-18T04:15:26.087Z,1.00
2019-05-18T04:17:56.134Z,0.80
2019-05-18T04:20:25.458Z,0.70
2019-05-18T04:25:51.262Z,0.67
2019-05-18T04:28:20.771Z,0.77
2019-05-18T04:30:50.192Z,0.60
2019-05-18T04:33:19.641Z,0.97
2019-05-18T04:35:49.363Z,0.73
2019-05-18T04:38:20.576Z,0.80
2019-05-18T04:41:29.280Z,1.03
2019-05-18T04:43:59.039Z,0.70
2019-05-18T04:46:28.736Z,0.80
2019-05-18T04:51:54.429Z,0.97
2019-05-18T04:54:23.808Z,0.60
2019-05-18T04:56:53.169Z,0.80
2019-05-18T04:59:22.632Z,1.00
2019-05-18T05:04:41.179Z,0.50
2019-05-18T05:07:30.315Z,0.70
2019-05-18T05:09:59.926Z,1.30
2019-05-18T05:12:29.403Z,0.73
2019-05-18T05:17:54.496Z,0.67
2019-05-18T05:23:39.492Z,0.93
2019-05-18T05:26:21.762Z,0.93
2019-05-18T05:28:51.229Z,0.83
2019-05-18T05:31:20.629Z,0.87
2019-05-18T05:33:49.993Z,0.80
2019-05-18T05:36:58.885Z,0.60
2019-05-18T05:39:28.307Z,0.43
2019-05-18T05:42:16.603Z,0.50
2019-05-18T05:44:46.010Z,0.90
2019-05-18T05:47:15.452Z,0.60
2019-05-18T05:49:44.824Z,0.80
2019-05-18T05:52:14.725Z,0.60
2019-05-18T05:54:44.214Z,0.50
2019-05-18T05:57:13.616Z,1.20
2019-05-18T05:59:42.996Z,0.93
2019-05-18T06:02:12.616Z,0.70
2019-05-18T06:04:42.021Z,0.90
2019-05-18T06:07:11.588Z,1.20
2019-05-18T06:09:41.089Z,0.80
2019-05-18T06:12:10.471Z,0.90
2019-05-18T06:17:54.555Z,0.60
2019-05-18T06:20:24.226Z,0.87
2019-05-18T06:22:53.676Z,0.50
2019-05-18T06:28:18.441Z,0.60
2019-05-18T06:33:49.784Z,0.50
2019-05-18T06:36:20.653Z,0.40
2019-05-18T06:38:50.358Z,0.40
2019-05-18T06:41:59.356Z,0.40
2019-05-18T06:44:28.865Z,0.40
2019-05-18T06:47:37.895Z,0.50
2019-05-18T06:53:23.445Z,0.60
2019-05-18T07:02:08.433Z,0.20
2019-05-18T07:04:38.297Z,0.40
2019-05-18T07:07:08.588Z,0.30
2019-05-18T07:10:17.321Z,0.20
2019-05-18T07:12:49.316Z,0.53
2019-05-18T07:15:57.977Z,0.40
2019-05-18T07:21:23.752Z,0.50
2019-05-18T07:23:53.116Z,0.30
2019-05-18T07:27:02.023Z,0.40
2019-05-18T07:29:31.423Z,0.60
2019-05-18T07:32:00.932Z,0.30
2019-05-18T07:37:45.653Z,0.40
2019-05-18T07:43:23.778Z,0.60
2019-05-18T07:49:08.049Z,0.57
2019-05-18T07:51:37.829Z,0.20
2019-05-18T07:56:55.528Z,0.47
2019-05-18T07:59:25.239Z,0.40
2019-05-18T08:01:54.620Z,0.37
2019-05-18T08:05:03.357Z,0.60
2019-05-18T08:07:33.205Z,0.47
2019-05-18T08:10:02.582Z,0.60
2019-05-18T08:12:31.957Z,0.40
2019-05-18T08:15:01.616Z,0.60
2019-05-18T08:17:31.440Z,0.47
2019-05-18T08:20:00.911Z,0.40
2019-05-18T08:22:30.281Z,1.00
2019-05-18T08:24:59.644Z,0.67
2019-05-18T08:27:29.144Z,0.47
2019-05-18T08:29:58.663Z,0.60
2019-05-18T08:32:28.475Z,0.50
2019-05-18T08:34:57.866Z,0.40
2019-05-18T08:37:27.274Z,0.50
2019-05-18T08:39:57.009Z,0.50
2019-05-18T08:42:45.403Z,1.00
2019-05-18T08:48:30.203Z,0.50
2019-05-18T08:50:59.688Z,0.70
2019-05-18T08:54:08.489Z,1.47
2019-05-18T08:56:38.531Z,1.00
2019-05-18T08:59:07.944Z,0.60
2019-05-18T09:01:37.416Z,0.87
2019-05-18T09:04:06.886Z,0.70
2019-05-18T09:06:36.353Z,1.20
2019-05-18T09:09:06.949Z,0.80
2019-05-18T09:11:36.437Z,1.00
2019-05-18T09:14:06.038Z,0.70
2019-05-18T09:16:35.737Z,1.17
2019-05-18T09:19:05.123Z,0.90
2019-05-18T09:21:34.643Z,0.60
2019-05-18T09:24:04.216Z,1.40
2019-05-18T09:26:33.816Z,0.80
2019-05-18T09:29:03.232Z,0.53
2019-05-18T09:31:33.345Z,0.77
2019-05-18T09:34:03.385Z,0.50
2019-05-18T09:36:52.061Z,0.77
2019-05-18T09:39:21.823Z,0.83
2019-05-18T09:41:51.448Z,3.80
2019-05-18T09:44:20.869Z,5.70
2019-05-18T09:46:50.357Z,12.63
2019-05-18T09:49:19.748Z,15.57
2019-05-18T09:51:49.117Z,16.27
2019-05-18T09:54:18.532Z,8.50
2019-05-18T09:56:50.963Z,6.03
2019-05-18T09:59:20.492Z,4.27
2019-05-18T10:02:29.405Z,2.67
2019-05-18T10:04:58.956Z,1.40
2019-05-18T10:07:28.305Z,1.70
2019-05-18T10:09:58.244Z,0.93
2019-05-18T10:13:07.160Z,0.90
2019-05-18T10:15:36.557Z,0.80
2019-05-18T10:18:45.409Z,0.70
2019-05-18T10:21:15.839Z,0.93
2019-05-18T10:23:45.244Z,1.07
2019-05-18T10:26:14.661Z,0.80
2019-05-18T10:28:44.031Z,0.87
2019-05-18T10:31:13.415Z,1.43
2019-05-18T10:33:43.831Z,1.10
2019-05-18T10:36:13.317Z,1.40
2019-05-18T10:38:42.661Z,1.90
2019-05-18T10:43:52.575Z,1.60
2019-05-18T10:46:21.972Z,1.60
2019-05-18T10:48:51.417Z,2.10
2019-05-18T10:51:20.796Z,1.83
2019-05-18T10:56:59.522Z,3.33
2019-05-18T10:59:28.941Z,4.00
2019-05-18T11:01:58.350Z,4.20
2019-05-18T11:04:28.048Z,4.63
2019-05-18T11:06:57.543Z,3.77
2019-05-18T11:09:26.918Z,5.10
2019-05-18T11:11:56.373Z,7.10
2019-05-18T11:14:25.788Z,7.57
2019-05-18T11:16:55.275Z,7.67
2019-05-18T11:19:24.691Z,5.93
2019-05-18T11:21:54.548Z,2.60
2019-05-18T11:24:24.112Z,1.47
2019-05-18T11:26:53.651Z,1.50
2019-05-18T11:29:24.111Z,1.47
2019-05-18T11:31:54.098Z,1.20
2019-05-18T11:34:23.646Z,1.60
2019-05-18T11:36:53.382Z,1.30
2019-05-18T11:39:22.814Z,1.50
2019-05-18T11:41:52.163Z,1.63
2019-05-18T11:45:00.866Z,1.50
2019-05-18T11:47:32.154Z,1.53
2019-05-18T11:50:01.728Z,1.77
2019-05-18T11:52:31.227Z,1.40
2019-05-18T11:55:00.591Z,1.40
2019-05-18T11:57:29.973Z,1.37
2019-05-18T11:59:59.851Z,1.40
2019-05-18T12:02:29.293Z,1.40
2019-05-18T12:04:59.024Z,1.53
2019-05-18T12:07:28.457Z,1.30
2019-05-18T12:09:57.864Z,1.87
2019-05-18T12:12:27.259Z,3.03
2019-05-18T12:14:56.906Z,5.63
2019-05-18T12:17:26.378Z,5.47
2019-05-18T12:19:55.822Z,4.70
2019-05-18T12:25:21.613Z,2.30
2019-05-18T12:31:02.143Z,1.27
2019-05-18T12:33:31.898Z,1.40
2019-05-18T12:36:01.812Z,1.27
2019-05-18T12:38:31.741Z,1.27
2019-05-18T12:41:41.081Z,1.20
2019-05-18T12:44:12.507Z,1.30
2019-05-18T12:49:51.167Z,1.70
2019-05-18T12:52:21.650Z,1.97
2019-05-18T12:54:51.127Z,2.60
2019-05-18T13:00:55.599Z,2.83
2019-05-18T13:03:25.145Z,2.53
2019-05-18T13:08:50.640Z,1.60
2019-05-18T13:11:20.250Z,1.20
2019-05-18T13:14:28.933Z,1.60
2019-05-18T13:19:37.671Z,1.40
2019-05-18T13:22:07.429Z,1.70
2019-05-18T13:24:55.922Z,1.60
2019-05-18T13:30:28.065Z,1.20
2019-05-18T13:33:16.508Z,1.40
2019-05-18T13:35:57.402Z,1.50
2019-05-18T13:38:26.952Z,1.50
2019-05-18T13:41:15.831Z,1.57
2019-05-18T13:44:05.065Z,1.40
2019-05-18T13:47:13.953Z,1.37
2019-05-18T13:52:39.074Z,1.40
2019-05-18T13:55:47.888Z,1.03
2019-05-18T13:58:56.758Z,1.40
2019-05-18T14:01:40.806Z,1.53
2019-05-18T14:04:10.653Z,1.27
2019-05-18T14:09:50.225Z,1.10
2019-05-18T14:12:20.237Z,1.03
2019-05-18T14:14:49.711Z,1.60
2019-05-18T14:17:19.799Z,1.10
2019-05-18T14:20:28.513Z,0.97
2019-05-18T14:25:54.143Z,0.97
2019-05-18T14:31:32.864Z,0.97
2019-05-18T14:34:02.372Z,1.20
2019-05-18T14:39:27.198Z,1.17
2019-05-18T14:45:44.562Z,1.70
2019-05-18T14:48:14.004Z,1.37
2019-05-18T14:50:43.457Z,1.60
2019-05-18T14:53:12.936Z,1.27
2019-05-18T14:55:42.385Z,1.30
2019-05-18T14:58:11.874Z,1.30
2019-05-18T15:00:41.262Z,1.40
2019-05-18T15:07:00.295Z,1.30
2019-05-18T15:12:25.253Z,1.20
2019-05-18T15:14:55.032Z,1.30
2019-05-18T15:17:24.621Z,1.37
2019-05-18T15:19:54.198Z,1.10
2019-05-18T15:25:48.168Z,0.97
2019-05-18T15:31:19.604Z,1.37
2019-05-18T15:34:29.871Z,1.07
2019-05-18T15:36:59.353Z,1.60
2019-05-18T15:39:28.876Z,1.10
2019-05-18T15:42:37.734Z,1.20
2019-05-18T15:48:22.327Z,0.90
2019-05-18T15:50:52.308Z,0.90
2019-05-18T15:53:22.151Z,0.83
2019-05-18T15:56:04.865Z,0.77
2019-05-18T15:58:22.980Z,0.80
2019-05-18T16:01:31.657Z,0.77
2019-05-18T16:07:10.765Z,1.07
2019-05-18T16:09:40.441Z,1.00
2019-05-18T16:12:09.899Z,0.80
2019-05-18T16:17:38.814Z,0.80
2019-05-18T16:20:00.067Z,0.80
2019-05-18T16:25:39.256Z,1.00
2019-05-18T16:28:08.824Z,0.93
2019-05-18T16:31:17.711Z,1.00
2019-05-18T16:33:47.207Z,0.87
2019-05-18T16:36:16.860Z,0.77
2019-05-18T16:38:46.539Z,0.70
2019-05-18T16:44:25.276Z,0.60
2019-05-18T16:50:04.578Z,0.70
2019-05-18T16:53:13.887Z,0.57
2019-05-18T16:56:34.528Z,0.97
2019-05-18T16:58:56.211Z,0.70
2019-05-18T17:01:25.707Z,0.87
2019-05-18T17:06:51.457Z,0.80
2019-05-18T17:12:32.549Z,1.07
2019-05-18T17:15:01.982Z,0.90
2019-05-18T17:17:35.254Z,0.50
2019-05-18T17:20:03.494Z,1.00
2019-05-18T17:22:32.832Z,0.90
2019-05-18T17:25:02.219Z,0.93
2019-05-18T17:27:31.744Z,0.87
2019-05-18T17:30:01.414Z,1.00
2019-05-18T17:32:30.855Z,0.80
2019-05-18T17:35:39.744Z,0.90
2019-05-18T17:41:23.814Z,1.23
2019-05-18T17:44:33.129Z,1.07
2019-05-18T17:47:02.703Z,1.30
2019-05-18T17:49:51.376Z,0.90
2019-05-18T17:52:20.815Z,0.90
2019-05-18T17:57:58.915Z,0.80
2019-05-18T18:01:07.998Z,0.70
2019-05-18T18:04:16.773Z,0.77
2019-05-18T18:06:46.168Z,1.10
2019-05-18T18:09:15.569Z,0.90
2019-05-18T18:11:45.163Z,0.80
2019-05-18T18:14:15.177Z,0.80
2019-05-18T18:17:23.862Z,0.83
2019-05-18T18:20:00.298Z,1.00
2019-05-18T18:22:36.108Z,1.40
2019-05-18T18:25:45.215Z,0.90
2019-05-18T18:28:25.902Z,1.60
2019-05-18T18:30:55.558Z,1.20
2019-05-18T18:33:24.987Z,1.83
2019-05-18T18:36:35.597Z,0.80
2019-05-18T18:45:26.915Z,1.20
2019-05-18T18:47:56.496Z,1.20
2019-05-18T18:50:25.947Z,1.20
2019-05-18T18:52:55.826Z,1.33
2019-05-18T18:56:04.577Z,1.20
2019-05-18T18:58:34.186Z,1.23
2019-05-18T19:01:03.680Z,1.43
2019-05-18T19:07:09.214Z,2.00
2019-05-18T19:09:40.028Z,1.83
2019-05-18T19:12:09.448Z,1.40
2019-05-18T19:14:39.126Z,1.17
2019-05-18T19:17:08.622Z,1.07
2019-05-18T19:20:17.698Z,1.30
2019-05-18T19:25:48.809Z,1.23
2019-05-18T19:28:29.881Z,1.23
2019-05-18T19:30:59.432Z,1.00
2019-05-18T19:36:44.532Z,1.43
2019-05-18T19:39:14.347Z,2.00
2019-05-18T19:41:44.172Z,1.30
2019-05-18T19:44:13.667Z,1.40
2019-05-18T19:46:43.140Z,1.30
2019-05-18T19:55:03.786Z,1.00
2019-05-18T19:57:34.542Z,1.37
2019-05-18T20:00:05.037Z,1.43
2019-05-18T20:02:34.663Z,1.10
2019-05-18T20:08:14.349Z,1.60
2019-05-18T20:10:44.081Z,1.47
2019-05-18T20:13:13.730Z,2.13
2019-05-18T20:15:43.339Z,1.97
2019-05-18T20:21:22.400Z,1.77
2019-05-18T20:24:11.091Z,1.83
2019-05-18T20:26:40.972Z,1.20
2019-05-18T20:29:10.476Z,1.30
2019-05-18T20:31:39.873Z,1.90
2019-05-18T20:34:48.560Z,1.87
2019-05-18T20:37:18.008Z,1.60
2019-05-18T20:42:42.991Z,2.40
2019-05-18T20:48:27.210Z,3.40
2019-05-18T20:57:01.118Z,2.90
2019-05-18T20:59:30.580Z,2.13
2019-05-18T21:02:00.388Z,2.70
2019-05-18T21:05:09.531Z,2.60
2019-05-18T21:10:41.198Z,4.23
2019-05-18T21:16:19.339Z,3.40
2019-05-18T21:21:58.733Z,3.40
2019-05-18T21:24:28.398Z,3.20
2019-05-18T21:27:38.284Z,2.60
2019-05-18T21:33:09.676Z,4.43
2019-05-18T21:36:18.607Z,3.17
2019-05-18T21:41:44.396Z,3.57
2019-05-18T21:47:15.663Z,4.63
2019-05-18T21:50:04.539Z,3.50
2019-05-18T21:53:13.202Z,3.60
2019-05-18T21:55:43.483Z,4.83
2019-05-18T21:58:13.210Z,5.57
2019-05-18T22:03:48.867Z,4.90
2019-05-18T22:09:33.273Z,5.13
2019-05-18T22:12:02.653Z,6.70
2019-05-18T22:14:32.912Z,7.30
2019-05-18T22:17:02.885Z,8.83
2019-05-18T22:19:32.888Z,7.00
2019-05-18T22:22:14.073Z,5.13
2019-05-18T22:24:44.272Z,5.90
2019-05-18T22:27:13.726Z,5.37
2019-05-18T22:29:43.215Z,5.47
2019-05-18T22:32:52.222Z,5.83
2019-05-18T22:36:01.099Z,6.23
2019-05-18T22:38:32.548Z,6.27
2019-05-18T22:41:02.447Z,6.97
2019-05-18T22:44:11.179Z,6.60
2019-05-18T22:49:43.630Z,5.97
2019-05-18T22:52:24.583Z,5.47
2019-05-18T22:57:49.801Z,4.90
2019-05-18T23:00:58.515Z,5.97
2019-05-18T23:04:07.237Z,6.80
2019-05-18T23:09:32.769Z,7.13
2019-05-18T23:12:02.761Z,6.70
2019-05-18T23:14:32.194Z,5.50
2019-05-18T23:17:02.041Z,4.97
2019-05-18T23:19:31.468Z,3.97
2019-05-18T23:22:40.217Z,3.33
2019-05-18T23:28:19.497Z,3.67
2019-05-18T23:31:28.150Z,3.90
2019-05-18T23:33:57.551Z,4.33
2019-05-18T23:36:27.132Z,4.47
2019-05-18T23:41:53.079Z,4.20
2019-05-18T23:47:31.135Z,4.07
2019-05-18T23:50:00.601Z,4.20
2019-05-18T23:52:41.541Z,3.60
2019-05-18T23:58:20.749Z,4.10
